Time,TemperatureF,DewpointF,PressureIn,WindDirection,WindDirectionDegrees,WindSpeedMPH,WindSpeedGustMPH,Humidity,HourlyPrecipIn,Conditions,Clouds,dailyrainin,SolarRadiationWatts/m^2,SoftwareType,DateUTC
2013-03-19 00:00:00,37.2,36.2,29.96,East,96,0.0,0.0,96,0.00,,,0.15,0,Wunderground v.1.15,2013-03-19 04:00:00,
2013-03-19 00:03:00,37.2,36.2,29.97,East,96,0.0,0.0,96,0.00,,,0.15,0,Wunderground v.1.15,2013-03-19 04:03:00,
2013-03-19 00:08:00,37.3,36.5,29.97,NW,324,0.0,1.0,97,0.00,,,0.15,0,Wunderground v.1.15,2013-03-19 04:08:00,
2013-03-19 00:12:00,37.3,36.3,29.98,NNW,329,1.0,1.0,96,0.00,,,0.15,0,Wunderground v.1.15,2013-03-19 04:12:00,
2013-03-19 00:17:00,37.3,36.3,29.98,NNW,343,0.0,2.0,96,0.00,,,0.15,0,Wunderground v.1.15,2013-03-19 04:17:00,
2013-03-19 00:22:00,37.3,36.5,29.98,WNW,292,0.0,2.0,97,0.00,,,0.15,0,Wunderground v.1.15,2013-03-19 04:22:00,
2013-03-19 00:28:00,37.3,36.5,30.00,NW,311,2.0,3.0,97,0.00,,,0.15,0,Wunderground v.1.15,2013-03-19 04:28:00,
2013-03-19 00:34:00,37.3,36.5,29.99,North,5,3.0,3.0,97,0.00,,,0.15,0,Wunderground v.1.15,2013-03-19 04:34:00,
2013-03-19 00:40:00,37.4,36.6,29.98,North,355,0.0,1.0,97,0.00,,,0.15,0,Wunderground v.1.15,2013-03-19 04:40:00,
2013-03-19 00:46:00,37.4,36.6,29.97,North,360,0.0,2.0,97,0.00,,,0.15,0,Wunderground v.1.15,2013-03-19 04:46:00,
2013-03-19 00:51:00,37.4,36.6,29.97,North,360,0.0,1.0,97,0.00,,,0.15,0,Wunderground v.1.15,2013-03-19 04:51:00,
2013-03-19 00:57:00,37.4,36.6,29.95,North,360,0.0,1.0,97,0.00,,,0.15,0,Wunderground v.1.15,2013-03-19 04:57:00,
2013-03-19 01:02:00,37.4,36.6,29.94,North,360,0.0,0.0,97,0.00,,,0.15,0,Wunderground v.1.15,2013-03-19 05:02:00,
2013-03-19 01:08:00,37.8,37.0,29.94,ESE,121,1.0,2.0,97,0.00,,,0.00,0,Wunderground v.1.15,2013-03-19 05:08:00,
2013-03-19 01:13:00,37.7,36.7,29.94,ESE,122,2.0,3.0,96,0.00,,,0.00,0,Wunderground v.1.15,2013-03-19 05:13:00,
2013-03-19 01:18:00,37.9,36.9,29.94,SE,125,0.0,3.0,96,0.00,,,0.00,0,Wunderground v.1.15,2013-03-19 05:18:00,
2013-03-19 01:24:00,37.9,36.9,29.95,SE,128,0.0,1.0,96,0.00,,,0.00,0,Wunderground v.1.15,2013-03-19 05:24:00,
2013-03-19 01:29:00,37.9,36.9,29.95,SE,128,0.0,1.0,96,0.00,,,0.00,0,Wunderground v.1.15,2013-03-19 05:29:00,
2013-03-19 01:35:00,37.8,36.8,29.95,SSW,203,0.0,2.0,96,0.00,,,0.00,0,Wunderground v.1.15,2013-03-19 05:35:00,
2013-03-19 01:41:00,37.7,36.7,29.94,SSW,203,0.0,0.0,96,0.00,,,0.00,0,Wunderground v.1.15,2013-03-19 05:41:00,
2013-03-19 01:46:00,37.7,36.7,29.95,SSW,203,0.0,0.0,96,0.00,,,0.00,0,Wunderground v.1.15,2013-03-19 05:46:00,
2013-03-19 01:52:00,37.7,36.7,29.95,SW,231,0.0,1.0,96,0.00,,,0.00,0,Wunderground v.1.15,2013-03-19 05:52:00,
2013-03-19 01:57:00,37.6,36.6,29.96,WSW,253,0.0,1.0,96,0.00,,,0.00,0,Wunderground v.1.15,2013-03-19 05:57:00,
2013-03-19 02:02:00,37.6,36.8,29.95,West,263,0.0,1.0,97,0.00,,,0.00,0,Wunderground v.1.15,2013-03-19 06:02:00,
2013-03-19 02:07:00,37.5,36.5,29.95,West,277,3.0,3.0,96,0.00,,,0.00,0,Wunderground v.1.15,2013-03-19 06:07:00,
2013-03-19 02:12:00,37.5,36.5,29.95,West,278,0.0,2.0,96,0.00,,,0.00,0,Wunderground v.1.15,2013-03-19 06:12:00,
2013-03-19 02:17:00,37.5,36.5,29.95,West,278,0.0,2.0,96,0.00,,,0.00,0,Wunderground v.1.15,2013-03-19 06:17:00,
2013-03-19 02:22:00,37.5,36.5,29.94,West,278,0.0,0.0,96,0.00,,,0.00,0,Wunderground v.1.15,2013-03-19 06:22:00,
2013-03-19 02:27:00,37.5,36.5,29.94,West,278,0.0,1.0,96,0.00,,,0.00,0,Wunderground v.1.15,2013-03-19 06:27:00,
2013-03-19 02:32:00,37.5,36.5,29.93,West,278,0.0,1.0,96,0.00,,,0.00,0,Wunderground v.1.15,2013-03-19 06:32:00,
2013-03-19 02:37:00,37.6,36.8,29.93,West,278,0.0,1.0,97,0.00,,,0.00,0,Wunderground v.1.15,2013-03-19 06:37:00,
2013-03-19 02:42:00,37.6,36.8,29.93,West,278,0.0,0.0,97,0.00,,,0.00,0,Wunderground v.1.15,2013-03-19 06:42:00,
2013-03-19 02:47:00,37.6,36.8,29.93,West,278,0.0,1.0,97,0.00,,,0.00,0,Wunderground v.1.15,2013-03-19 06:47:00,
2013-03-19 02:52:00,37.6,36.8,29.92,West,278,0.0,2.0,97,0.00,,,0.00,0,Wunderground v.1.15,2013-03-19 06:52:00,
2013-03-19 02:57:00,37.5,36.7,29.92,West,278,0.0,2.0,97,0.00,,,0.00,0,Wunderground v.1.15,2013-03-19 06:57:00,
2013-03-19 03:02:00,37.6,36.8,29.92,West,278,0.0,1.0,97,0.00,,,0.00,0,Wunderground v.1.15,2013-03-19 07:02:00,
2013-03-19 03:07:00,37.6,36.8,29.91,West,278,0.0,1.0,97,0.00,,,0.00,0,Wunderground v.1.15,2013-03-19 07:07:00,
2013-03-19 03:12:00,37.6,36.8,29.92,West,278,0.0,1.0,97,0.00,,,0.00,0,Wunderground v.1.15,2013-03-19 07:12:00,
2013-03-19 03:17:00,37.4,36.6,29.91,NNW,342,0.0,3.0,97,0.00,,,0.00,0,Wunderground v.1.15,2013-03-19 07:17:00,
2013-03-19 03:22:00,37.4,36.6,29.91,NNW,329,0.0,3.0,97,0.00,,,0.00,0,Wunderground v.1.15,2013-03-19 07:22:00,
2013-03-19 03:27:00,37.3,36.5,29.91,NNW,332,2.0,3.0,97,0.00,,,0.00,0,Wunderground v.1.15,2013-03-19 07:27:00,
2013-03-19 03:32:00,37.2,36.4,29.91,North,355,2.0,4.0,97,0.00,,,0.00,0,Wunderground v.1.15,2013-03-19 07:32:00,
2013-03-19 03:37:00,37.2,36.4,29.91,NNW,344,0.0,4.0,97,0.00,,,0.00,0,Wunderground v.1.15,2013-03-19 07:37:00,
2013-03-19 03:43:00,37.1,36.3,29.90,NNW,342,0.0,4.0,97,0.00,,,0.00,0,Wunderground v.1.15,2013-03-19 07:43:00,
2013-03-19 03:48:00,37.0,36.2,29.90,NNW,341,0.0,4.0,97,0.00,,,0.00,0,Wunderground v.1.15,2013-03-19 07:48:00,
2013-03-19 03:53:00,37.0,36.2,29.90,NNW,341,0.0,1.0,97,0.00,,,0.00,0,Wunderground v.1.15,2013-03-19 07:53:00,
2013-03-19 03:58:00,36.9,36.1,29.89,NNW,341,0.0,1.0,97,0.00,,,0.00,0,Wunderground v.1.15,2013-03-19 07:58:00,
2013-03-19 04:03:00,36.8,36.0,29.88,NNW,344,2.0,3.0,97,0.00,,,0.00,0,Wunderground v.1.15,2013-03-19 08:03:00,
2013-03-19 04:08:00,36.7,35.9,29.89,NNW,344,0.0,3.0,97,0.00,,,0.00,0,Wunderground v.1.15,2013-03-19 08:08:00,
2013-03-19 04:13:00,36.7,35.9,29.88,NNW,344,0.0,1.0,97,0.00,,,0.00,0,Wunderground v.1.15,2013-03-19 08:13:00,
2013-03-19 04:18:00,36.7,35.9,29.88,NNW,344,0.0,1.0,97,0.00,,,0.00,0,Wunderground v.1.15,2013-03-19 08:18:00,
2013-03-19 04:23:00,36.8,36.0,29.89,NNW,344,0.0,1.0,97,0.00,,,0.00,0,Wunderground v.1.15,2013-03-19 08:23:00,
2013-03-19 04:28:00,36.8,36.0,29.89,NNW,344,0.0,1.0,97,0.00,,,0.00,0,Wunderground v.1.15,2013-03-19 08:28:00,
2013-03-19 04:33:00,36.8,36.0,29.89,NNW,344,0.0,2.0,97,0.00,,,0.00,0,Wunderground v.1.15,2013-03-19 08:33:00,
2013-03-19 04:38:00,36.8,36.0,29.88,NNW,344,0.0,2.0,97,0.00,,,0.00,0,Wunderground v.1.15,2013-03-19 08:38:00,
2013-03-19 04:43:00,36.9,36.1,29.89,NNW,344,0.0,1.0,97,0.00,,,0.00,0,Wunderground v.1.15,2013-03-19 08:43:00,
2013-03-19 04:48:00,36.9,36.1,29.89,NNW,331,0.0,3.0,97,0.00,,,0.00,0,Wunderground v.1.15,2013-03-19 08:48:00,
2013-03-19 04:53:00,36.9,36.1,29.89,NNW,331,0.0,1.0,97,0.00,,,0.00,0,Wunderground v.1.15,2013-03-19 08:53:00,
2013-03-19 04:58:00,36.9,36.1,29.89,NNW,331,0.0,1.0,97,0.00,,,0.00,0,Wunderground v.1.15,2013-03-19 08:58:00,
2013-03-19 05:03:00,36.9,36.1,29.88,NNW,331,0.0,1.0,97,0.00,,,0.00,0,Wunderground v.1.15,2013-03-19 09:03:00,
2013-03-19 05:08:00,36.9,36.1,29.88,NNW,331,0.0,2.0,97,0.00,,,0.00,0,Wunderground v.1.15,2013-03-19 09:08:00,
2013-03-19 05:13:00,36.8,36.0,29.88,NNW,331,1.0,3.0,97,0.00,,,0.00,0,Wunderground v.1.15,2013-03-19 09:13:00,
2013-03-19 05:18:00,36.8,36.0,29.89,NW,305,0.0,3.0,97,0.00,,,0.00,0,Wunderground v.1.15,2013-03-19 09:18:00,
2013-03-19 05:23:00,36.8,36.0,29.88,NW,304,0.0,2.0,97,0.00,,,0.00,0,Wunderground v.1.15,2013-03-19 09:23:00,
2013-03-19 05:28:00,36.8,36.0,29.88,NW,304,0.0,2.0,97,0.00,,,0.00,0,Wunderground v.1.15,2013-03-19 09:28:00,
2013-03-19 05:33:00,36.8,36.0,29.89,SSW,207,1.0,3.0,97,0.00,,,0.00,0,Wunderground v.1.15,2013-03-19 09:33:00,
2013-03-19 05:38:00,36.8,36.0,29.88,SSW,202,0.0,3.0,97,0.00,,,0.00,0,Wunderground v.1.15,2013-03-19 09:38:00,
2013-03-19 05:43:00,36.9,36.1,29.88,WSW,246,0.0,3.0,97,0.00,,,0.00,0,Wunderground v.1.15,2013-03-19 09:43:00,
2013-03-19 05:48:00,36.9,36.1,29.88,WSW,246,1.0,3.0,97,0.00,,,0.00,0,Wunderground v.1.15,2013-03-19 09:48:00,
2013-03-19 05:53:00,36.9,36.1,29.88,WSW,243,2.0,3.0,97,0.00,,,0.00,0,Wunderground v.1.15,2013-03-19 09:53:00,
2013-03-19 05:58:00,36.9,36.1,29.88,SW,226,3.0,4.0,97,0.00,,,0.00,0,Wunderground v.1.15,2013-03-19 09:58:00,
2013-03-19 06:03:00,37.0,36.2,29.88,SW,227,1.0,3.0,97,0.00,,,0.00,0,Wunderground v.1.15,2013-03-19 10:03:00,
2013-03-19 06:08:00,37.0,36.2,29.88,SSW,202,0.0,4.0,97,0.00,,,0.00,0,Wunderground v.1.15,2013-03-19 10:08:00,
2013-03-19 06:13:00,37.1,36.3,29.88,SSW,201,0.0,2.0,97,0.00,,,0.00,0,Wunderground v.1.15,2013-03-19 10:13:00,
2013-03-19 06:18:00,37.1,36.3,29.89,SSW,201,0.0,2.0,97,0.00,,,0.00,0,Wunderground v.1.15,2013-03-19 10:18:00,
2013-03-19 06:23:00,37.2,36.4,29.89,SSW,201,0.0,1.0,97,0.00,,,0.00,0,Wunderground v.1.15,2013-03-19 10:23:00,
2013-03-19 06:28:00,37.3,36.5,29.89,SSW,201,1.0,1.0,97,0.00,,,0.00,0,Wunderground v.1.15,2013-03-19 10:28:00,
2013-03-19 06:33:00,37.4,36.6,29.89,SSW,207,3.0,3.0,97,0.00,,,0.00,0,Wunderground v.1.15,2013-03-19 10:33:00,
2013-03-19 06:38:00,37.4,36.6,29.89,SSW,213,2.0,3.0,97,0.00,,,0.00,0,Wunderground v.1.15,2013-03-19 10:38:00,
2013-03-19 06:43:00,37.5,36.7,29.89,SW,221,1.0,3.0,97,0.00,,,0.00,0,Wunderground v.1.15,2013-03-19 10:43:00,
2013-03-19 06:48:00,37.6,36.8,29.89,SW,224,4.0,4.0,97,0.00,,,0.00,0,Wunderground v.1.15,2013-03-19 10:48:00,
2013-03-19 06:53:00,37.7,36.9,29.88,SW,226,2.0,4.0,97,0.00,,,0.00,0,Wunderground v.1.15,2013-03-19 10:53:00,
2013-03-19 06:59:00,37.8,37.0,29.88,SW,221,1.0,5.0,97,0.00,,,0.00,0,Wunderground v.1.15,2013-03-19 10:59:00,
2013-03-19 07:04:00,37.8,37.0,29.88,SW,226,5.0,5.0,97,0.00,,,0.00,0,Wunderground v.1.15,2013-03-19 11:04:00,
2013-03-19 07:09:00,37.9,37.1,29.89,WNW,290,1.0,6.0,97,0.00,,,0.00,0,Wunderground v.1.15,2013-03-19 11:09:00,
2013-03-19 07:14:00,37.9,37.1,29.89,West,275,2.0,2.0,97,0.00,,,0.00,0,Wunderground v.1.15,2013-03-19 11:14:00,
2013-03-19 07:19:00,37.9,37.1,29.89,SW,223,0.0,6.0,97,0.00,,,0.00,0,Wunderground v.1.15,2013-03-19 11:19:00,
2013-03-19 07:24:00,37.9,37.1,29.89,SW,223,0.0,2.0,97,0.00,,,0.00,5,Wunderground v.1.15,2013-03-19 11:24:00,
2013-03-19 07:29:00,37.9,37.1,29.88,West,277,3.0,4.0,97,0.00,,,0.00,9,Wunderground v.1.15,2013-03-19 11:29:00,
2013-03-19 07:34:00,37.8,37.0,29.89,WSW,258,1.0,5.0,97,0.00,,,0.00,14,Wunderground v.1.15,2013-03-19 11:34:00,
2013-03-19 07:39:00,37.8,37.0,29.88,WSW,239,2.0,5.0,97,0.00,,,0.00,18,Wunderground v.1.15,2013-03-19 11:39:00,
2013-03-19 07:44:00,37.8,37.0,29.88,WSW,242,2.0,4.0,97,0.00,,,0.00,16,Wunderground v.1.15,2013-03-19 11:44:00,
2013-03-19 07:49:00,37.9,37.1,29.88,SW,227,0.0,4.0,97,0.00,,,0.00,19,Wunderground v.1.15,2013-03-19 11:49:00,
2013-03-19 07:54:00,37.9,37.1,29.88,West,275,1.0,4.0,97,0.00,,,0.00,28,Wunderground v.1.15,2013-03-19 11:54:00,
2013-03-19 07:59:00,37.9,37.1,29.89,West,274,4.0,5.0,97,0.00,,,0.00,33,Wunderground v.1.15,2013-03-19 11:59:00,
2013-03-19 08:04:00,38.0,37.2,29.89,West,281,0.0,2.0,97,0.00,,,0.00,39,Wunderground v.1.15,2013-03-19 12:04:00,
2013-03-19 08:09:00,38.0,37.2,29.90,West,268,0.0,6.0,97,0.00,,,0.00,44,Wunderground v.1.15,2013-03-19 12:09:00,
2013-03-19 08:14:00,38.2,37.4,29.90,WNW,288,5.0,5.0,97,0.00,,,0.00,53,Wunderground v.1.15,2013-03-19 12:14:00,
2013-03-19 08:19:00,38.1,37.3,29.90,WNW,288,1.0,5.0,97,0.00,,,0.00,72,Wunderground v.1.15,2013-03-19 12:19:00,
2013-03-19 08:24:00,38.2,37.4,29.90,WSW,240,2.0,6.0,97,0.00,,,0.00,62,Wunderground v.1.15,2013-03-19 12:24:00,
2013-03-19 08:29:00,38.2,37.4,29.90,WNW,290,1.0,7.0,97,0.00,,,0.00,60,Wunderground v.1.15,2013-03-19 12:29:00,
2013-03-19 08:34:00,38.5,37.7,29.91,West,274,0.0,3.0,97,0.00,,,0.00,67,Wunderground v.1.15,2013-03-19 12:34:00,
2013-03-19 08:39:00,38.6,37.8,29.91,West,274,1.0,4.0,97,0.00,,,0.00,69,Wunderground v.1.15,2013-03-19 12:39:00,
2013-03-19 08:44:00,38.7,37.9,29.92,NNW,347,2.0,5.0,97,0.00,,,0.00,83,Wunderground v.1.15,2013-03-19 12:44:00,
2013-03-19 08:49:00,38.8,38.0,29.92,SW,221,5.0,8.0,97,0.00,,,0.00,93,Wunderground v.1.15,2013-03-19 12:49:00,
2013-03-19 08:54:00,38.8,38.0,29.92,SW,222,1.0,9.0,97,0.00,,,0.00,88,Wunderground v.1.15,2013-03-19 12:54:00,
2013-03-19 08:59:00,38.9,38.1,29.92,NW,307,4.0,9.0,97,0.00,,,0.00,98,Wunderground v.1.15,2013-03-19 12:59:00,
2013-03-19 09:05:00,39.1,38.3,29.93,WSW,238,4.0,9.0,97,0.00,,,0.00,104,Wunderground v.1.15,2013-03-19 13:05:00,
2013-03-19 09:10:00,39.3,38.5,29.93,WSW,250,7.0,7.0,97,0.00,,,0.00,144,Wunderground v.1.15,2013-03-19 13:10:00,
2013-03-19 09:15:00,39.5,38.7,29.93,WNW,290,1.0,7.0,97,0.00,,,0.00,156,Wunderground v.1.15,2013-03-19 13:15:00,
2013-03-19 09:20:00,39.6,38.8,29.93,WSW,243,3.0,4.0,97,0.00,,,0.00,141,Wunderground v.1.15,2013-03-19 13:20:00,
2013-03-19 09:25:00,39.8,39.0,29.94,WSW,256,3.0,5.0,97,0.00,,,0.00,188,Wunderground v.1.15,2013-03-19 13:25:00,
2013-03-19 09:30:00,40.2,39.4,29.94,WNW,284,0.0,2.0,97,0.00,,,0.00,181,Wunderground v.1.15,2013-03-19 13:30:00,
2013-03-19 09:35:00,40.6,39.8,29.94,West,274,0.0,5.0,97,0.00,,,0.00,202,Wunderground v.1.15,2013-03-19 13:35:00,
2013-03-19 09:40:00,40.9,40.1,29.94,WNW,292,3.0,8.0,97,0.00,,,0.00,281,Wunderground v.1.15,2013-03-19 13:40:00,
2013-03-19 09:45:00,41.5,40.4,29.94,WSW,238,0.0,9.0,96,0.00,,,0.00,243,Wunderground v.1.15,2013-03-19 13:45:00,
2013-03-19 09:50:00,42.1,41.0,29.94,SW,217,0.0,3.0,96,0.00,,,0.00,394,Wunderground v.1.15,2013-03-19 13:50:00,
2013-03-19 09:55:00,42.5,41.2,29.94,West,269,3.0,5.0,95,0.00,,,0.00,439,Wunderground v.1.15,2013-03-19 13:55:00,
2013-03-19 10:00:00,43.4,41.8,29.94,West,277,1.0,3.0,94,0.00,,,0.00,378,Wunderground v.1.15,2013-03-19 14:00:00,
2013-03-19 10:05:00,44.2,42.3,29.94,West,272,4.0,5.0,93,0.00,,,0.00,364,Wunderground v.1.15,2013-03-19 14:05:00,
2013-03-19 10:10:00,44.3,42.4,29.94,WNW,288,2.0,2.0,93,0.00,,,0.00,343,Wunderground v.1.15,2013-03-19 14:10:00,
2013-03-19 10:15:00,44.6,42.4,29.95,West,269,1.0,4.0,92,0.00,,,0.00,448,Wunderground v.1.15,2013-03-19 14:15:00,
2013-03-19 10:20:00,45.2,43.0,29.95,SW,232,3.0,5.0,92,0.00,,,0.00,557,Wunderground v.1.15,2013-03-19 14:20:00,
2013-03-19 10:25:00,45.7,42.6,29.95,West,260,7.0,8.0,89,0.00,,,0.00,626,Wunderground v.1.15,2013-03-19 14:25:00,
2013-03-19 10:30:00,46.6,43.5,29.95,West,281,2.0,8.0,89,0.00,,,0.00,782,Wunderground v.1.15,2013-03-19 14:30:00,
2013-03-19 10:35:00,47.6,43.9,29.94,West,275,3.0,8.0,87,0.00,,,0.00,721,Wunderground v.1.15,2013-03-19 14:35:00,
2013-03-19 10:40:00,47.3,43.0,29.95,West,267,3.0,6.0,85,0.00,,,0.00,439,Wunderground v.1.15,2013-03-19 14:40:00,
2013-03-19 10:46:00,47.4,43.4,29.95,West,263,2.0,9.0,86,0.00,,,0.00,325,Wunderground v.1.15,2013-03-19 14:46:00,
2013-03-19 10:51:00,47.2,43.2,29.95,SW,236,0.0,3.0,86,0.00,,,0.00,304,Wunderground v.1.15,2013-03-19 14:51:00,
2013-03-19 10:56:00,47.8,43.8,29.95,NNE,28,0.0,4.0,86,0.00,,,0.00,513,Wunderground v.1.15,2013-03-19 14:56:00,
2013-03-19 11:01:00,48.7,44.4,29.95,WSW,239,1.0,5.0,85,0.00,,,0.00,619,Wunderground v.1.15,2013-03-19 15:01:00,
2013-03-19 11:06:00,49.6,44.6,29.95,NW,319,1.0,5.0,83,0.00,,,0.00,626,Wunderground v.1.15,2013-03-19 15:06:00,
2013-03-19 11:11:00,50.0,43.7,29.94,WNW,293,1.0,5.0,79,0.00,,,0.00,763,Wunderground v.1.15,2013-03-19 15:11:00,
2013-03-19 11:16:00,51.1,44.8,29.94,SW,229,6.0,7.0,79,0.00,,,0.00,765,Wunderground v.1.15,2013-03-19 15:16:00,
2013-03-19 11:21:00,51.4,44.4,29.94,WNW,298,2.0,5.0,77,0.00,,,0.00,768,Wunderground v.1.15,2013-03-19 15:21:00,
2013-03-19 11:26:00,52.0,43.6,29.94,West,279,6.0,9.0,73,0.00,,,0.00,775,Wunderground v.1.15,2013-03-19 15:26:00,
2013-03-19 11:31:00,52.6,44.2,29.94,West,281,3.0,4.0,73,0.00,,,0.00,779,Wunderground v.1.15,2013-03-19 15:31:00,
2013-03-19 11:36:00,53.2,44.4,29.94,WSW,255,4.0,9.0,72,0.00,,,0.00,789,Wunderground v.1.15,2013-03-19 15:36:00,
2013-03-19 11:41:00,53.4,43.1,29.94,NW,325,1.0,5.0,68,0.00,,,0.00,793,Wunderground v.1.15,2013-03-19 15:41:00,
2013-03-19 11:46:00,54.1,44.2,29.94,West,273,5.0,13.0,69,0.00,,,0.00,805,Wunderground v.1.15,2013-03-19 15:46:00,
2013-03-19 11:51:00,53.5,42.4,29.94,WSW,250,10.0,11.0,66,0.00,,,0.00,803,Wunderground v.1.15,2013-03-19 15:51:00,
2013-03-19 11:56:00,53.9,42.4,29.94,West,281,6.0,11.0,65,0.00,,,0.00,814,Wunderground v.1.15,2013-03-19 15:56:00,
2013-03-19 12:01:00,54.0,43.3,29.94,SW,234,4.0,4.0,67,0.00,,,0.00,816,Wunderground v.1.15,2013-03-19 16:01:00,
2013-03-19 12:06:00,54.4,42.1,29.94,NW,311,4.0,13.0,63,0.00,,,0.00,821,Wunderground v.1.15,2013-03-19 16:06:00,
2013-03-19 12:11:00,54.6,42.7,29.93,West,262,2.0,5.0,64,0.00,,,0.00,828,Wunderground v.1.15,2013-03-19 16:11:00,
2013-03-19 12:16:00,54.8,42.0,29.93,SW,231,3.0,7.0,62,0.00,,,0.00,830,Wunderground v.1.15,2013-03-19 16:16:00,
2013-03-19 12:21:00,55.5,43.1,29.93,NW,306,1.0,6.0,63,0.00,,,0.00,837,Wunderground v.1.15,2013-03-19 16:21:00,
2013-03-19 12:26:00,55.6,43.2,29.93,SW,224,1.0,9.0,63,0.00,,,0.00,838,Wunderground v.1.15,2013-03-19 16:26:00,
2013-03-19 12:31:00,56.1,43.7,29.93,WSW,254,3.0,6.0,63,0.00,,,0.00,842,Wunderground v.1.15,2013-03-19 16:31:00,
2013-03-19 12:36:00,56.5,42.8,29.93,West,271,6.0,10.0,60,0.00,,,0.00,849,Wunderground v.1.15,2013-03-19 16:36:00,
2013-03-19 12:41:00,56.2,42.5,29.92,SW,223,2.0,5.0,60,0.00,,,0.00,849,Wunderground v.1.15,2013-03-19 16:41:00,
2013-03-19 12:46:00,56.7,43.4,29.92,SW,227,1.0,5.0,61,0.00,,,0.00,849,Wunderground v.1.15,2013-03-19 16:46:00,
2013-03-19 12:51:00,57.6,42.0,29.92,West,267,2.0,10.0,56,0.00,,,0.00,856,Wunderground v.1.15,2013-03-19 16:51:00,
2013-03-19 12:56:00,58.4,42.8,29.92,WSW,250,2.0,10.0,56,0.00,,,0.00,851,Wunderground v.1.15,2013-03-19 16:56:00,
2013-03-19 13:01:00,58.6,42.9,29.92,SW,236,0.0,5.0,56,0.00,,,0.00,856,Wunderground v.1.15,2013-03-19 17:01:00,
2013-03-19 13:06:00,58.9,41.3,29.92,South,186,4.0,13.0,52,0.00,,,0.00,860,Wunderground v.1.15,2013-03-19 17:06:00,
2013-03-19 13:11:00,59.6,41.9,29.92,NW,325,0.0,4.0,52,0.00,,,0.00,849,Wunderground v.1.15,2013-03-19 17:11:00,
2013-03-19 13:16:00,59.7,42.0,29.92,SSW,200,3.0,8.0,52,0.00,,,0.00,854,Wunderground v.1.15,2013-03-19 17:16:00,
2013-03-19 13:22:00,59.8,40.6,29.91,WNW,282,8.0,9.0,49,0.00,,,0.00,856,Wunderground v.1.15,2013-03-19 17:22:00,
2013-03-19 13:27:00,59.9,40.1,29.91,SW,236,5.0,9.0,48,0.00,,,0.00,853,Wunderground v.1.15,2013-03-19 17:27:00,
2013-03-19 13:32:00,60.0,39.1,29.91,WNW,286,4.0,5.0,46,0.00,,,0.00,846,Wunderground v.1.15,2013-03-19 17:32:00,
2013-03-19 13:37:00,61.0,35.8,29.91,NW,314,4.0,12.0,39,0.00,,,0.00,853,Wunderground v.1.15,2013-03-19 17:37:00,
2013-03-19 13:42:00,60.8,36.9,29.91,NW,315,4.0,9.0,41,0.00,,,0.00,844,Wunderground v.1.15,2013-03-19 17:42:00,
2013-03-19 13:47:00,61.0,35.2,29.91,WSW,247,4.0,12.0,38,0.00,,,0.00,842,Wunderground v.1.15,2013-03-19 17:47:00,
2013-03-19 13:52:00,61.1,36.6,29.91,SW,217,15.0,15.0,40,0.00,,,0.00,837,Wunderground v.1.15,2013-03-19 17:52:00,
2013-03-19 13:57:00,61.1,34.6,29.91,WNW,294,7.0,15.0,37,0.00,,,0.00,830,Wunderground v.1.15,2013-03-19 17:57:00,
2013-03-19 14:02:00,61.5,35.6,29.91,WNW,295,3.0,8.0,38,0.00,,,0.00,830,Wunderground v.1.15,2013-03-19 18:02:00,
2013-03-19 14:07:00,61.7,33.7,29.91,WSW,241,3.0,12.0,35,0.00,,,0.00,821,Wunderground v.1.15,2013-03-19 18:07:00,
2013-03-19 14:12:00,61.8,33.1,29.91,WNW,288,5.0,11.0,34,0.00,,,0.00,816,Wunderground v.1.15,2013-03-19 18:12:00,
2013-03-19 14:17:00,62.4,34.4,29.91,West,278,0.0,11.0,35,0.00,,,0.00,809,Wunderground v.1.15,2013-03-19 18:17:00,
2013-03-19 14:22:00,63.6,32.4,29.90,WNW,301,8.0,9.0,31,0.00,,,0.00,803,Wunderground v.1.15,2013-03-19 18:22:00,
2013-03-19 14:27:00,63.0,31.0,29.90,NNW,327,9.0,14.0,30,0.00,,,0.00,798,Wunderground v.1.15,2013-03-19 18:27:00,
2013-03-19 14:32:00,63.6,32.4,29.90,West,259,4.0,7.0,31,0.00,,,0.00,789,Wunderground v.1.15,2013-03-19 18:32:00,
2013-03-19 14:37:00,63.8,30.0,29.89,NW,306,4.0,9.0,28,0.00,,,0.00,779,Wunderground v.1.15,2013-03-19 18:37:00,
2013-03-19 14:42:00,63.8,30.0,29.89,NW,306,3.0,8.0,28,0.00,,,0.00,773,Wunderground v.1.15,2013-03-19 18:42:00,
2013-03-19 14:47:00,63.1,27.6,29.89,WSW,239,5.0,9.0,26,0.00,,,0.00,761,Wunderground v.1.15,2013-03-19 18:47:00,
2013-03-19 14:52:00,63.7,30.8,29.88,WSW,252,6.0,10.0,29,0.00,,,0.00,749,Wunderground v.1.15,2013-03-19 18:52:00,
2013-03-19 14:57:00,64.4,32.3,29.89,West,272,1.0,10.0,30,0.00,,,0.00,740,Wunderground v.1.15,2013-03-19 18:57:00,
2013-03-19 15:02:00,63.8,30.9,29.89,West,261,4.0,12.0,29,0.00,,,0.00,733,Wunderground v.1.15,2013-03-19 19:02:00,
2013-03-19 15:07:00,64.2,30.4,29.89,NNW,335,5.0,14.0,28,0.00,,,0.00,724,Wunderground v.1.15,2013-03-19 19:07:00,
2013-03-19 15:12:00,64.2,30.4,29.89,WNW,299,13.0,13.0,28,0.00,,,0.00,710,Wunderground v.1.15,2013-03-19 19:12:00,
2013-03-19 15:17:00,63.8,28.2,29.88,WNW,283,6.0,17.0,26,0.00,,,0.00,701,Wunderground v.1.15,2013-03-19 19:17:00,
2013-03-19 15:22:00,64.8,32.6,29.89,SSW,213,7.0,14.0,30,0.00,,,0.00,691,Wunderground v.1.15,2013-03-19 19:22:00,
2013-03-19 15:27:00,64.7,29.0,29.89,WSW,247,5.0,14.0,26,0.00,,,0.00,673,Wunderground v.1.15,2013-03-19 19:27:00,
2013-03-19 15:32:00,64.8,30.0,29.89,NW,307,6.0,10.0,27,0.00,,,0.00,666,Wunderground v.1.15,2013-03-19 19:32:00,
2013-03-19 15:37:00,64.9,31.0,29.89,WNW,285,6.0,14.0,28,0.00,,,0.00,656,Wunderground v.1.15,2013-03-19 19:37:00,
2013-03-19 15:42:00,65.2,28.5,29.89,WNW,291,7.0,10.0,25,0.00,,,0.00,636,Wunderground v.1.15,2013-03-19 19:42:00,
2013-03-19 15:47:00,65.0,28.3,29.89,NW,312,4.0,17.0,25,0.00,,,0.00,622,Wunderground v.1.15,2013-03-19 19:47:00,
2013-03-19 15:52:00,64.7,27.0,29.89,NNE,32,2.0,9.0,24,0.00,,,0.00,610,Wunderground v.1.15,2013-03-19 19:52:00,
2013-03-19 15:57:00,64.7,28.0,29.89,NW,304,3.0,12.0,25,0.00,,,0.00,592,Wunderground v.1.15,2013-03-19 19:57:00,
2013-03-19 16:02:00,64.7,30.8,29.89,WSW,250,3.0,6.0,28,0.00,,,0.00,578,Wunderground v.1.15,2013-03-19 20:02:00,
2013-03-19 16:07:00,65.2,28.5,29.89,WNW,292,10.0,13.0,25,0.00,,,0.00,566,Wunderground v.1.15,2013-03-19 20:07:00,
2013-03-19 16:12:00,65.0,29.2,29.89,West,280,10.0,10.0,26,0.00,,,0.00,552,Wunderground v.1.15,2013-03-19 20:12:00,
2013-03-19 16:17:00,65.3,27.5,29.89,WNW,284,9.0,12.0,24,0.00,,,0.00,534,Wunderground v.1.15,2013-03-19 20:17:00,
2013-03-19 16:22:00,65.6,29.8,29.89,WNW,293,5.0,8.0,26,0.00,,,0.00,519,Wunderground v.1.15,2013-03-19 20:22:00,
2013-03-19 16:27:00,65.6,26.8,29.89,NW,311,2.0,14.0,23,0.00,,,0.00,506,Wunderground v.1.15,2013-03-19 20:27:00,
2013-03-19 16:32:00,65.4,29.6,29.88,West,275,3.0,10.0,26,0.00,,,0.00,490,Wunderground v.1.15,2013-03-19 20:32:00,
2013-03-19 16:37:00,65.5,26.7,29.89,West,279,1.0,16.0,23,0.00,,,0.00,473,Wunderground v.1.15,2013-03-19 20:37:00,
2013-03-19 16:42:00,65.6,26.8,29.89,West,277,9.0,12.0,23,0.00,,,0.00,457,Wunderground v.1.15,2013-03-19 20:42:00,
2013-03-19 16:47:00,65.6,27.8,29.89,WNW,291,3.0,12.0,24,0.00,,,0.00,446,Wunderground v.1.15,2013-03-19 20:47:00,
2013-03-19 16:52:00,65.5,26.7,29.89,WSW,240,5.0,13.0,23,0.00,,,0.00,429,Wunderground v.1.15,2013-03-19 20:52:00,
2013-03-19 16:57:00,65.8,24.7,29.89,SSW,210,8.0,13.0,21,0.00,,,0.00,411,Wunderground v.1.15,2013-03-19 20:57:00,
2013-03-19 17:02:00,65.6,23.4,29.89,NNW,333,5.0,12.0,20,0.00,,,0.00,396,Wunderground v.1.15,2013-03-19 21:02:00,
2013-03-19 17:07:00,65.8,24.7,29.89,WSW,257,3.0,12.0,21,0.00,,,0.00,376,Wunderground v.1.15,2013-03-19 21:07:00,
2013-03-19 17:13:00,65.8,22.3,29.89,West,277,0.0,11.0,19,0.00,,,0.00,359,Wunderground v.1.15,2013-03-19 21:13:00,
2013-03-19 17:18:00,65.6,20.9,29.89,SW,223,3.0,22.0,18,0.00,,,0.00,339,Wunderground v.1.15,2013-03-19 21:18:00,
2013-03-19 17:23:00,65.4,22.0,29.90,WNW,296,6.0,18.0,19,0.00,,,0.00,323,Wunderground v.1.15,2013-03-19 21:23:00,
2013-03-19 17:28:00,65.1,20.5,29.90,WNW,298,4.0,18.0,18,0.00,,,0.00,304,Wunderground v.1.15,2013-03-19 21:28:00,
2013-03-19 17:33:00,65.1,21.8,29.90,West,277,3.0,14.0,19,0.00,,,0.00,285,Wunderground v.1.15,2013-03-19 21:33:00,
2013-03-19 17:38:00,65.3,24.3,29.89,WNW,289,9.0,14.0,21,0.00,,,0.00,265,Wunderground v.1.15,2013-03-19 21:38:00,
2013-03-19 17:43:00,65.4,24.4,29.89,SSW,211,4.0,8.0,21,0.00,,,0.00,243,Wunderground v.1.15,2013-03-19 21:43:00,
2013-03-19 17:48:00,65.3,24.3,29.90,WNW,285,8.0,16.0,21,0.00,,,0.00,229,Wunderground v.1.15,2013-03-19 21:48:00,
2013-03-19 17:53:00,64.6,18.7,29.90,North,9,2.0,21.0,17,0.00,,,0.00,202,Wunderground v.1.15,2013-03-19 21:53:00,
2013-03-19 17:58:00,64.0,19.6,29.90,WNW,298,4.0,21.0,18,0.00,,,0.00,178,Wunderground v.1.15,2013-03-19 21:58:00,
2013-03-19 18:03:00,63.8,21.9,29.90,WNW,294,6.0,14.0,20,0.00,,,0.00,155,Wunderground v.1.15,2013-03-19 22:03:00,
2013-03-19 18:08:00,63.6,21.7,29.90,West,267,8.0,14.0,20,0.00,,,0.00,134,Wunderground v.1.15,2013-03-19 22:08:00,
2013-03-19 18:13:00,63.4,22.7,29.91,WNW,294,5.0,9.0,21,0.00,,,0.00,114,Wunderground v.1.15,2013-03-19 22:13:00,
2013-03-19 18:18:00,63.3,20.3,29.91,West,268,15.0,17.0,19,0.00,,,0.00,98,Wunderground v.1.15,2013-03-19 22:18:00,
2013-03-19 18:23:00,63.0,21.2,29.91,West,267,5.0,12.0,20,0.00,,,0.00,79,Wunderground v.1.15,2013-03-19 22:23:00,
2013-03-19 18:28:00,62.6,22.1,29.91,West,265,4.0,14.0,21,0.00,,,0.00,49,Wunderground v.1.15,2013-03-19 22:28:00,
2013-03-19 18:33:00,62.4,20.8,29.91,WSW,250,5.0,11.0,20,0.00,,,0.00,42,Wunderground v.1.15,2013-03-19 22:33:00,
2013-03-19 18:38:00,62.1,21.7,29.92,NNW,331,2.0,16.0,21,0.00,,,0.00,37,Wunderground v.1.15,2013-03-19 22:38:00,
2013-03-19 18:43:00,61.8,21.4,29.92,WNW,294,2.0,13.0,21,0.00,,,0.00,26,Wunderground v.1.15,2013-03-19 22:43:00,
2013-03-19 18:48:00,61.3,22.1,29.92,WNW,288,6.0,13.0,22,0.00,,,0.00,25,Wunderground v.1.15,2013-03-19 22:48:00,
2013-03-19 18:54:00,61.0,22.9,29.93,WNW,300,1.0,14.0,23,0.00,,,0.00,23,Wunderground v.1.15,2013-03-19 22:54:00,
2013-03-19 18:59:00,60.7,22.6,29.93,NW,304,0.0,14.0,23,0.00,,,0.00,21,Wunderground v.1.15,2013-03-19 22:59:00,
2013-03-19 19:04:00,60.5,24.5,29.93,NNW,341,1.0,9.0,25,0.00,,,0.00,18,Wunderground v.1.15,2013-03-19 23:04:00,
2013-03-19 19:08:00,59.9,23.0,29.93,West,280,1.0,11.0,24,0.00,,,0.00,14,Wunderground v.1.15,2013-03-19 23:08:00,
2013-03-19 19:14:00,59.5,24.5,29.94,NW,309,1.0,4.0,26,0.00,,,0.00,12,Wunderground v.1.15,2013-03-19 23:14:00,
2013-03-19 19:19:00,59.3,24.4,29.94,WSW,245,2.0,8.0,26,0.00,,,0.00,9,Wunderground v.1.15,2013-03-19 23:19:00,
2013-03-19 19:24:00,59.0,24.1,29.94,WSW,253,3.0,7.0,26,0.00,,,0.00,7,Wunderground v.1.15,2013-03-19 23:24:00,
2013-03-19 19:29:00,58.7,24.8,29.95,West,275,1.0,7.0,27,0.00,,,0.00,0,Wunderground v.1.15,2013-03-19 23:29:00,
2013-03-19 19:34:00,58.1,24.3,29.95,SW,236,0.0,6.0,27,0.00,,,0.00,0,Wunderground v.1.15,2013-03-19 23:34:00,
2013-03-19 19:39:00,57.8,24.9,29.95,WSW,257,2.0,6.0,28,0.00,,,0.00,0,Wunderground v.1.15,2013-03-19 23:39:00,
2013-03-19 19:44:00,57.5,24.6,29.96,NW,309,0.0,6.0,28,0.00,,,0.00,0,Wunderground v.1.15,2013-03-19 23:44:00,
2013-03-19 19:49:00,57.3,25.3,29.96,West,275,7.0,9.0,29,0.00,,,0.00,0,Wunderground v.1.15,2013-03-19 23:49:00,
2013-03-19 19:54:00,57.3,23.6,29.96,West,273,4.0,7.0,27,0.00,,,0.00,0,Wunderground v.1.15,2013-03-19 23:54:00,
2013-03-19 19:59:00,57.1,23.4,29.97,SW,223,5.0,10.0,27,0.00,,,0.00,0,Wunderground v.1.15,2013-03-19 23:59:00,
2013-03-19 20:04:00,57.2,21.6,29.97,West,267,2.0,11.0,25,0.00,,,0.00,0,Wunderground v.1.15,2013-03-20 00:04:00,
2013-03-19 20:09:00,57.2,21.6,29.97,NW,307,2.0,11.0,25,0.00,,,0.00,0,Wunderground v.1.15,2013-03-20 00:09:00,
2013-03-19 20:14:00,57.0,20.5,29.97,NNW,340,1.0,7.0,24,0.00,,,0.00,0,Wunderground v.1.15,2013-03-20 00:14:00,
2013-03-19 20:19:00,56.7,20.3,29.98,North,5,7.0,12.0,24,0.00,,,0.00,0,Wunderground v.1.15,2013-03-20 00:19:00,
2013-03-19 20:24:00,56.5,20.1,29.98,NW,304,2.0,13.0,24,0.00,,,0.00,0,Wunderground v.1.15,2013-03-20 00:24:00,
2013-03-19 20:29:00,56.3,19.9,29.99,NW,308,3.0,13.0,24,0.00,,,0.00,0,Wunderground v.1.15,2013-03-20 00:29:00,
2013-03-19 20:34:00,56.0,18.7,29.99,NW,319,1.0,7.0,23,0.00,,,0.00,0,Wunderground v.1.15,2013-03-20 00:34:00,
2013-03-19 20:39:00,55.9,18.6,29.99,West,260,0.0,9.0,23,0.00,,,0.00,0,Wunderground v.1.15,2013-03-20 00:39:00,
2013-03-19 20:44:00,55.5,18.2,29.99,WNW,292,6.0,6.0,23,0.00,,,0.00,0,Wunderground v.1.15,2013-03-20 00:44:00,
2013-03-19 20:49:00,55.4,18.2,30.00,West,261,4.0,9.0,23,0.00,,,0.00,0,Wunderground v.1.15,2013-03-20 00:49:00,
2013-03-19 20:55:00,54.8,19.6,30.00,NNW,330,3.0,5.0,25,0.00,,,0.00,0,Wunderground v.1.15,2013-03-20 00:55:00,
2013-03-19 21:00:00,54.3,20.1,30.01,NNW,338,4.0,4.0,26,0.00,,,0.00,0,Wunderground v.1.15,2013-03-20 01:00:00,
2013-03-19 21:05:00,53.9,15.9,30.01,West,281,3.0,7.0,22,0.00,,,0.00,0,Wunderground v.1.15,2013-03-20 01:05:00,
2013-03-19 21:10:00,53.9,14.8,30.01,NNE,31,3.0,3.0,21,0.00,,,0.00,0,Wunderground v.1.15,2013-03-20 01:10:00,
2013-03-19 21:15:00,53.7,13.5,30.01,NW,307,5.0,10.0,20,0.00,,,0.00,0,Wunderground v.1.15,2013-03-20 01:15:00,
2013-03-19 21:20:00,53.5,11.0,30.01,West,259,5.0,5.0,18,0.00,,,0.00,0,Wunderground v.1.15,2013-03-20 01:20:00,
2013-03-19 21:25:00,53.5,11.0,30.02,NNW,342,1.0,9.0,18,0.00,,,0.00,0,Wunderground v.1.15,2013-03-20 01:25:00,
2013-03-19 21:30:00,53.0,10.6,30.02,NW,325,2.0,3.0,18,0.00,,,0.00,0,Wunderground v.1.15,2013-03-20 01:30:00,
2013-03-19 21:35:00,52.9,9.2,30.02,NNE,14,8.0,8.0,17,0.00,,,0.00,0,Wunderground v.1.15,2013-03-20 01:35:00,
2013-03-19 21:40:00,52.6,10.2,30.03,WNW,302,2.0,2.0,18,0.00,,,0.00,0,Wunderground v.1.15,2013-03-20 01:40:00,
2013-03-19 21:45:00,52.4,10.1,30.03,SW,232,1.0,6.0,18,0.00,,,0.00,0,Wunderground v.1.15,2013-03-20 01:45:00,
2013-03-19 21:50:00,51.9,9.6,30.04,West,277,0.0,2.0,18,0.00,,,0.00,0,Wunderground v.1.15,2013-03-20 01:50:00,
2013-03-19 21:55:00,51.5,9.3,30.04,WNW,300,1.0,8.0,18,0.00,,,0.00,0,Wunderground v.1.15,2013-03-20 01:55:00,
2013-03-19 22:00:00,51.1,10.2,30.04,WNW,285,1.0,2.0,19,0.00,,,0.00,0,Wunderground v.1.15,2013-03-20 02:00:00,
2013-03-19 22:05:00,50.7,8.7,30.05,West,271,1.0,5.0,18,0.00,,,0.00,0,Wunderground v.1.15,2013-03-20 02:05:00,
2013-03-19 22:10:00,50.6,9.8,30.05,WSW,248,2.0,2.0,19,0.00,,,0.00,0,Wunderground v.1.15,2013-03-20 02:10:00,
2013-03-19 22:15:00,50.6,9.8,30.05,West,261,3.0,8.0,19,0.00,,,0.00,0,Wunderground v.1.15,2013-03-20 02:15:00,
2013-03-19 22:20:00,50.6,9.8,30.05,NW,325,3.0,6.0,19,0.00,,,0.00,0,Wunderground v.1.15,2013-03-20 02:20:00,
2013-03-19 22:25:00,50.4,9.6,30.05,WNW,284,4.0,6.0,19,0.00,,,0.00,0,Wunderground v.1.15,2013-03-20 02:25:00,
2013-03-19 22:30:00,50.2,10.6,30.06,WSW,246,1.0,3.0,20,0.00,,,0.00,0,Wunderground v.1.15,2013-03-20 02:30:00,
2013-03-19 22:35:00,50.1,10.5,30.06,WNW,289,4.0,11.0,20,0.00,,,0.00,0,Wunderground v.1.15,2013-03-20 02:35:00,
2013-03-19 22:40:00,50.0,10.4,30.06,WNW,286,2.0,3.0,20,0.00,,,0.00,0,Wunderground v.1.15,2013-03-20 02:40:00,
2013-03-19 22:45:00,49.9,10.4,30.06,WNW,290,2.0,5.0,20,0.00,,,0.00,0,Wunderground v.1.15,2013-03-20 02:45:00,
2013-03-19 22:50:00,49.8,10.3,30.06,WNW,300,1.0,3.0,20,0.00,,,0.00,0,Wunderground v.1.15,2013-03-20 02:50:00,
2013-03-19 22:55:00,49.7,10.2,30.06,NW,315,2.0,7.0,20,0.00,,,0.00,0,Wunderground v.1.15,2013-03-20 02:55:00,
2013-03-19 23:00:00,49.5,10.0,30.06,WSW,244,1.0,5.0,20,0.00,,,0.00,0,Wunderground v.1.15,2013-03-20 03:00:00,
2013-03-19 23:05:00,49.5,10.0,30.06,West,264,5.0,5.0,20,0.00,,,0.00,0,Wunderground v.1.15,2013-03-20 03:05:00,
2013-03-19 23:10:00,49.3,9.9,30.06,West,266,2.0,3.0,20,0.00,,,0.00,0,Wunderground v.1.15,2013-03-20 03:10:00,
2013-03-19 23:15:00,49.3,9.9,30.06,WNW,303,2.0,7.0,20,0.00,,,0.00,0,Wunderground v.1.15,2013-03-20 03:15:00,
2013-03-19 23:20:00,49.0,9.6,30.06,WSW,238,2.0,7.0,20,0.00,,,0.00,0,Wunderground v.1.15,2013-03-20 03:20:00,
2013-03-19 23:25:00,48.7,10.4,30.07,NW,314,0.0,7.0,21,0.00,,,0.00,0,Wunderground v.1.15,2013-03-20 03:25:00,
2013-03-19 23:30:00,48.9,9.5,30.07,NNW,340,1.0,3.0,20,0.00,,,0.00,0,Wunderground v.1.15,2013-03-20 03:30:00,
2013-03-19 23:35:00,49.0,9.6,30.07,NW,309,1.0,7.0,20,0.00,,,0.00,0,Wunderground v.1.15,2013-03-20 03:35:00,
2013-03-19 23:40:00,49.2,8.6,30.08,West,272,0.0,3.0,19,0.00,,,0.00,0,Wunderground v.1.15,2013-03-20 03:40:00,
2013-03-19 23:45:00,49.0,8.5,30.08,WNW,301,4.0,10.0,19,0.00,,,0.00,0,Wunderground v.1.15,2013-03-20 03:45:00,
2013-03-19 23:50:00,49.0,8.5,30.08,West,271,6.0,13.0,19,0.00,,,0.00,0,Wunderground v.1.15,2013-03-20 03:50:00,
2013-03-19 23:55:00,48.9,7.2,30.08,West,267,1.0,13.0,18,0.00,,,0.00,0,Wunderground v.1.15,2013-03-20 03:55:00,